sensor_id;sensor_type;location;lat;lon;timestamp;P1;P2;P0
55591;PMS5003;41454;53.396;-1.510;2022-12-18T00:01:44;50;46;
55591;PMS5003;41454;53.396;-1.510;2022-12-18T00:04:15;35;34;
55591;PMS5003;41454;53.396;-1.510;2022-12-18T00:06:46;34;32;
55591;PMS5003;41454;53.396;-1.510;2022-12-18T00:09:13;34;31;
55591;PMS5003;41454;53.396;-1.510;2022-12-18T00:11:41;38;34;
55591;PMS5003;41454;53.396;-1.510;2022-12-18T00:14:09;32;31;
55591;PMS5003;41454;53.396;-1.510;2022-12-18T00:16:38;30;30;
55591;PMS5003;41454;53.396;-1.510;2022-12-18T00:19:06;36;30;
55591;PMS5003;41454;53.396;-1.510;2022-12-18T00:21:35;39;38;
55591;PMS5003;41454;53.396;-1.510;2022-12-18T00:24:02;36;32;
55591;PMS5003;41454;53.396;-1.510;2022-12-18T00:26:30;37;31;
55591;PMS5003;41454;53.396;-1.510;2022-12-18T00:29:00;31;29;
55591;PMS5003;41454;53.396;-1.510;2022-12-18T00:31:29;25;24;
55591;PMS5003;41454;53.396;-1.510;2022-12-18T00:33:57;24;22;
55591;PMS5003;41454;53.396;-1.510;2022-12-18T00:36:25;23;23;
55591;PMS5003;41454;53.396;-1.510;2022-12-18T00:38:54;21;21;
55591;PMS5003;41454;53.396;-1.510;2022-12-18T00:41:23;23;22;
55591;PMS5003;41454;53.396;-1.510;2022-12-18T00:43:50;23;18;
55591;PMS5003;41454;53.396;-1.510;2022-12-18T00:46:17;20;20;
55591;PMS5003;41454;53.396;-1.510;2022-12-18T00:48:44;24;23;
55591;PMS5003;41454;53.396;-1.510;2022-12-18T00:51:11;30;29;
55591;PMS5003;41454;53.396;-1.510;2022-12-18T00:53:37;28;24;
55591;PMS5003;41454;53.396;-1.510;2022-12-18T00:56:05;27;25;
55591;PMS5003;41454;53.396;-1.510;2022-12-18T00:58:32;30;29;
55591;PMS5003;41454;53.396;-1.510;2022-12-18T01:00:59;27;25;
55591;PMS5003;41454;53.396;-1.510;2022-12-18T01:03:27;25;25;
55591;PMS5003;41454;53.396;-1.510;2022-12-18T01:05:54;22;22;
55591;PMS5003;41454;53.396;-1.510;2022-12-18T01:08:22;24;22;
55591;PMS5003;41454;53.396;-1.510;2022-12-18T01:10:49;22;22;
55591;PMS5003;41454;53.396;-1.510;2022-12-18T01:13:17;26;23;
55591;PMS5003;41454;53.396;-1.510;2022-12-18T01:15:47;23;23;
55591;PMS5003;41454;53.396;-1.510;2022-12-18T01:18:15;24;23;
55591;PMS5003;41454;53.396;-1.510;2022-12-18T01:20:43;25;24;
55591;PMS5003;41454;53.396;-1.510;2022-12-18T01:23:10;23;22;
55591;PMS5003;41454;53.396;-1.510;2022-12-18T01:25:37;20;19;
55591;PMS5003;41454;53.396;-1.510;2022-12-18T01:28:05;22;21;
55591;PMS5003;41454;53.396;-1.510;2022-12-18T01:30:32;19;19;
55591;PMS5003;41454;53.396;-1.510;2022-12-18T01:32:59;23;22;
55591;PMS5003;41454;53.396;-1.510;2022-12-18T01:35:27;24;22;
55591;PMS5003;41454;53.396;-1.510;2022-12-18T01:37:54;22;21;
55591;PMS5003;41454;53.396;-1.510;2022-12-18T01:40:22;24;23;
55591;PMS5003;41454;53.396;-1.510;2022-12-18T01:42:50;23;21;
55591;PMS5003;41454;53.396;-1.510;2022-12-18T01:45:22;22;21;
55591;PMS5003;41454;53.396;-1.510;2022-12-18T01:47:52;23;22;
55591;PMS5003;41454;53.396;-1.510;2022-12-18T01:50:22;26;21;
55591;PMS5003;41454;53.396;-1.510;2022-12-18T01:52:52;24;21;
55591;PMS5003;41454;53.396;-1.510;2022-12-18T01:55:23;26;24;
55591;PMS5003;41454;53.396;-1.510;2022-12-18T01:57:52;28;26;
55591;PMS5003;41454;53.396;-1.510;2022-12-18T02:00:22;28;26;
55591;PMS5003;41454;53.396;-1.510;2022-12-18T02:02:49;27;23;
55591;PMS5003;41454;53.396;-1.510;2022-12-18T02:05:17;24;23;
55591;PMS5003;41454;53.396;-1.510;2022-12-18T02:07:49;28;23;
55591;PMS5003;41454;53.396;-1.510;2022-12-18T02:10:29;23;21;
55591;PMS5003;41454;53.396;-1.510;2022-12-18T02:13:03;28;27;
55591;PMS5003;41454;53.396;-1.510;2022-12-18T02:15:39;24;23;
55591;PMS5003;41454;53.396;-1.510;2022-12-18T02:18:11;24;23;
55591;PMS5003;41454;53.396;-1.510;2022-12-18T02:20:43;23;22;
55591;PMS5003;41454;53.396;-1.510;2022-12-18T02:23:17;24;22;
55591;PMS5003;41454;53.396;-1.510;2022-12-18T02:26:02;25;25;
55591;PMS5003;41454;53.396;-1.510;2022-12-18T02:28:37;26;24;
55591;PMS5003;41454;53.396;-1.510;2022-12-18T02:31:09;23;21;
55591;PMS5003;41454;53.396;-1.510;2022-12-18T02:33:39;25;24;
55591;PMS5003;41454;53.396;-1.510;2022-12-18T02:36:08;23;21;
55591;PMS5003;41454;53.396;-1.510;2022-12-18T02:38:36;21;21;
55591;PMS5003;41454;53.396;-1.510;2022-12-18T02:41:05;23;23;
55591;PMS5003;41454;53.396;-1.510;2022-12-18T02:43:33;26;22;
55591;PMS5003;41454;53.396;-1.510;2022-12-18T02:46:01;21;21;
55591;PMS5003;41454;53.396;-1.510;2022-12-18T02:48:58;26;24;
55591;PMS5003;41454;53.396;-1.510;2022-12-18T02:51:34;23;21;
55591;PMS5003;41454;53.396;-1.510;2022-12-18T02:54:14;27;24;
55591;PMS5003;41454;53.396;-1.510;2022-12-18T02:57:03;30;27;
55591;PMS5003;41454;53.396;-1.510;2022-12-18T02:59:40;24;21;
55591;PMS5003;41454;53.396;-1.510;2022-12-18T03:02:16;24;24;
55591;PMS5003;41454;53.396;-1.510;2022-12-18T03:04:48;29;23;
55591;PMS5003;41454;53.396;-1.510;2022-12-18T03:07:24;29;26;
55591;PMS5003;41454;53.396;-1.510;2022-12-18T03:09:55;26;26;
55591;PMS5003;41454;53.396;-1.510;2022-12-18T03:12:27;27;24;
55591;PMS5003;41454;53.396;-1.510;2022-12-18T03:14:59;28;28;
55591;PMS5003;41454;53.396;-1.510;2022-12-18T03:17:30;33;31;
55591;PMS5003;41454;53.396;-1.510;2022-12-18T03:20:03;30;30;
55591;PMS5003;41454;53.396;-1.510;2022-12-18T03:22:34;32;32;
55591;PMS5003;41454;53.396;-1.510;2022-12-18T03:25:04;32;28;
55591;PMS5003;41454;53.396;-1.510;2022-12-18T03:27:38;32;28;
55591;PMS5003;41454;53.396;-1.510;2022-12-18T03:30:11;32;28;
55591;PMS5003;41454;53.396;-1.510;2022-12-18T03:32:41;37;34;
55591;PMS5003;41454;53.396;-1.510;2022-12-18T03:35:10;27;26;
55591;PMS5003;41454;53.396;-1.510;2022-12-18T03:37:40;31;30;
55591;PMS5003;41454;53.396;-1.510;2022-12-18T03:40:08;35;32;
55591;PMS5003;41454;53.396;-1.510;2022-12-18T03:42:37;32;30;
55591;PMS5003;41454;53.396;-1.510;2022-12-18T03:45:11;35;32;
55591;PMS5003;41454;53.396;-1.510;2022-12-18T03:47:46;32;30;
55591;PMS5003;41454;53.396;-1.510;2022-12-18T03:50:21;33;32;
55591;PMS5003;41454;53.396;-1.510;2022-12-18T03:52:57;35;33;
55591;PMS5003;41454;53.396;-1.510;2022-12-18T03:55:31;40;37;
55591;PMS5003;41454;53.396;-1.510;2022-12-18T03:58:00;34;30;
55591;PMS5003;41454;53.396;-1.510;2022-12-18T04:00:30;37;32;
55591;PMS5003;41454;53.396;-1.510;2022-12-18T04:02:58;33;31;
55591;PMS5003;41454;53.396;-1.510;2022-12-18T04:05:27;38;34;
55591;PMS5003;41454;53.396;-1.510;2022-12-18T04:07:57;36;33;
55591;PMS5003;41454;53.396;-1.510;2022-12-18T04:10:24;38;37;
55591;PMS5003;41454;53.396;-1.510;2022-12-18T04:12:52;37;36;
55591;PMS5003;41454;53.396;-1.510;2022-12-18T04:15:22;40;39;
55591;PMS5003;41454;53.396;-1.510;2022-12-18T04:17:51;40;39;
55591;PMS5003;41454;53.396;-1.510;2022-12-18T04:20:18;38;38;
55591;PMS5003;41454;53.396;-1.510;2022-12-18T04:22:45;41;38;
55591;PMS5003;41454;53.396;-1.510;2022-12-18T04:25:12;44;41;
55591;PMS5003;41454;53.396;-1.510;2022-12-18T04:27:40;41;41;
55591;PMS5003;41454;53.396;-1.510;2022-12-18T04:30:08;40;35;
55591;PMS5003;41454;53.396;-1.510;2022-12-18T04:32:36;44;35;
55591;PMS5003;41454;53.396;-1.510;2022-12-18T04:35:03;40;38;
55591;PMS5003;41454;53.396;-1.510;2022-12-18T04:37:31;41;34;
55591;PMS5003;41454;53.396;-1.510;2022-12-18T04:39:59;39;39;
55591;PMS5003;41454;53.396;-1.510;2022-12-18T04:42:26;42;40;
55591;PMS5003;41454;53.396;-1.510;2022-12-18T04:44:53;39;37;
55591;PMS5003;41454;53.396;-1.510;2022-12-18T04:47:20;40;39;
55591;PMS5003;41454;53.396;-1.510;2022-12-18T04:49:47;39;36;
55591;PMS5003;41454;53.396;-1.510;2022-12-18T04:52:14;41;40;
55591;PMS5003;41454;53.396;-1.510;2022-12-18T04:54:41;41;39;
55591;PMS5003;41454;53.396;-1.510;2022-12-18T04:57:08;44;42;
55591;PMS5003;41454;53.396;-1.510;2022-12-18T04:59:35;39;38;
55591;PMS5003;41454;53.396;-1.510;2022-12-18T05:02:02;39;38;
55591;PMS5003;41454;53.396;-1.510;2022-12-18T05:04:29;46;40;
55591;PMS5003;41454;53.396;-1.510;2022-12-18T05:06:56;37;36;
55591;PMS5003;41454;53.396;-1.510;2022-12-18T05:09:24;45;40;
55591;PMS5003;41454;53.396;-1.510;2022-12-18T05:11:51;45;42;
55591;PMS5003;41454;53.396;-1.510;2022-12-18T05:14:18;46;42;
55591;PMS5003;41454;53.396;-1.510;2022-12-18T05:16:46;43;40;
55591;PMS5003;41454;53.396;-1.510;2022-12-18T05:19:13;45;39;
55591;PMS5003;41454;53.396;-1.510;2022-12-18T05:21:40;46;41;
55591;PMS5003;41454;53.396;-1.510;2022-12-18T05:24:07;47;42;
55591;PMS5003;41454;53.396;-1.510;2022-12-18T05:26:35;49;47;
55591;PMS5003;41454;53.396;-1.510;2022-12-18T05:29:02;49;47;
55591;PMS5003;41454;53.396;-1.510;2022-12-18T05:31:29;40;37;
55591;PMS5003;41454;53.396;-1.510;2022-12-18T05:33:56;50;41;
55591;PMS5003;41454;53.396;-1.510;2022-12-18T05:36:23;43;41;
55591;PMS5003;41454;53.396;-1.510;2022-12-18T05:38:51;45;42;
55591;PMS5003;41454;53.396;-1.510;2022-12-18T05:41:18;43;42;
55591;PMS5003;41454;53.396;-1.510;2022-12-18T05:43:45;39;35;
55591;PMS5003;41454;53.396;-1.510;2022-12-18T05:46:13;49;45;
55591;PMS5003;41454;53.396;-1.510;2022-12-18T05:48:42;54;46;
55591;PMS5003;41454;53.396;-1.510;2022-12-18T05:51:12;45;43;
55591;PMS5003;41454;53.396;-1.510;2022-12-18T05:53:42;49;44;
55591;PMS5003;41454;53.396;-1.510;2022-12-18T05:56:10;60;53;
55591;PMS5003;41454;53.396;-1.510;2022-12-18T05:58:38;56;51;
55591;PMS5003;41454;53.396;-1.510;2022-12-18T06:01:06;50;46;
55591;PMS5003;41454;53.396;-1.510;2022-12-18T06:03:36;58;49;
55591;PMS5003;41454;53.396;-1.510;2022-12-18T06:06:03;52;50;
55591;PMS5003;41454;53.396;-1.510;2022-12-18T06:08:39;57;48;
55591;PMS5003;41454;53.396;-1.510;2022-12-18T06:11:06;50;45;
55591;PMS5003;41454;53.396;-1.510;2022-12-18T06:13:34;51;48;
55591;PMS5003;41454;53.396;-1.510;2022-12-18T06:16:01;56;49;
55591;PMS5003;41454;53.396;-1.510;2022-12-18T06:18:29;64;60;
55591;PMS5003;41454;53.396;-1.510;2022-12-18T06:20:57;70;62;
55591;PMS5003;41454;53.396;-1.510;2022-12-18T06:23:25;55;48;
55591;PMS5003;41454;53.396;-1.510;2022-12-18T06:25:54;74;60;
55591;PMS5003;41454;53.396;-1.510;2022-12-18T06:28:21;62;56;
55591;PMS5003;41454;53.396;-1.510;2022-12-18T06:30:48;63;59;
55591;PMS5003;41454;53.396;-1.510;2022-12-18T06:33:16;70;63;
55591;PMS5003;41454;53.396;-1.510;2022-12-18T06:35:44;70;62;
55591;PMS5003;41454;53.396;-1.510;2022-12-18T06:38:11;73;66;
55591;PMS5003;41454;53.396;-1.510;2022-12-18T06:40:38;77;68;
55591;PMS5003;41454;53.396;-1.510;2022-12-18T06:43:06;73;62;
55591;PMS5003;41454;53.396;-1.510;2022-12-18T06:45:33;70;62;
55591;PMS5003;41454;53.396;-1.510;2022-12-18T06:48:00;80;72;
55591;PMS5003;41454;53.396;-1.510;2022-12-18T06:50:28;69;62;
55591;PMS5003;41454;53.396;-1.510;2022-12-18T06:52:55;65;57;
55591;PMS5003;41454;53.396;-1.510;2022-12-18T06:55:22;64;59;
55591;PMS5003;41454;53.396;-1.510;2022-12-18T06:57:49;67;63;
55591;PMS5003;41454;53.396;-1.510;2022-12-18T07:00:17;68;57;
55591;PMS5003;41454;53.396;-1.510;2022-12-18T07:02:44;68;64;
55591;PMS5003;41454;53.396;-1.510;2022-12-18T07:05:12;66;63;
55591;PMS5003;41454;53.396;-1.510;2022-12-18T07:07:39;76;72;
55591;PMS5003;41454;53.396;-1.510;2022-12-18T07:10:06;65;63;
55591;PMS5003;41454;53.396;-1.510;2022-12-18T07:12:34;78;68;
55591;PMS5003;41454;53.396;-1.510;2022-12-18T07:15:01;71;65;
55591;PMS5003;41454;53.396;-1.510;2022-12-18T07:17:28;78;66;
55591;PMS5003;41454;53.396;-1.510;2022-12-18T07:19:55;66;58;
55591;PMS5003;41454;53.396;-1.510;2022-12-18T07:22:23;75;65;
55591;PMS5003;41454;53.396;-1.510;2022-12-18T07:24:52;75;67;
55591;PMS5003;41454;53.396;-1.510;2022-12-18T07:27:19;70;60;
55591;PMS5003;41454;53.396;-1.510;2022-12-18T07:29:46;71;61;
55591;PMS5003;41454;53.396;-1.510;2022-12-18T07:32:14;86;70;
55591;PMS5003;41454;53.396;-1.510;2022-12-18T07:34:41;84;78;
55591;PMS5003;41454;53.396;-1.510;2022-12-18T07:37:09;75;62;
55591;PMS5003;41454;53.396;-1.510;2022-12-18T07:39:36;78;72;
55591;PMS5003;41454;53.396;-1.510;2022-12-18T07:42:03;67;64;
55591;PMS5003;41454;53.396;-1.510;2022-12-18T07:44:31;73;64;
55591;PMS5003;41454;53.396;-1.510;2022-12-18T07:46:58;94;79;
55591;PMS5003;41454;53.396;-1.510;2022-12-18T07:49:25;81;72;
55591;PMS5003;41454;53.396;-1.510;2022-12-18T07:51:53;72;65;
55591;PMS5003;41454;53.396;-1.510;2022-12-18T07:54:21;70;65;
55591;PMS5003;41454;53.396;-1.510;2022-12-18T07:56:49;66;63;
55591;PMS5003;41454;53.396;-1.510;2022-12-18T07:59:17;71;65;
55591;PMS5003;41454;53.396;-1.510;2022-12-18T08:01:44;79;65;
55591;PMS5003;41454;53.396;-1.510;2022-12-18T08:04:12;75;63;
55591;PMS5003;41454;53.396;-1.510;2022-12-18T08:06:39;69;62;
55591;PMS5003;41454;53.396;-1.510;2022-12-18T08:09:06;81;70;
55591;PMS5003;41454;53.396;-1.510;2022-12-18T08:11:33;79;69;
55591;PMS5003;41454;53.396;-1.510;2022-12-18T08:14:00;70;65;
55591;PMS5003;41454;53.396;-1.510;2022-12-18T08:16:28;79;65;
55591;PMS5003;41454;53.396;-1.510;2022-12-18T08:18:55;72;61;
55591;PMS5003;41454;53.396;-1.510;2022-12-18T08:21:24;75;68;
55591;PMS5003;41454;53.396;-1.510;2022-12-18T08:23:52;75;66;
55591;PMS5003;41454;53.396;-1.510;2022-12-18T08:26:21;73;66;
55591;PMS5003;41454;53.396;-1.510;2022-12-18T08:28:49;63;56;
55591;PMS5003;41454;53.396;-1.510;2022-12-18T08:31:17;76;62;
55591;PMS5003;41454;53.396;-1.510;2022-12-18T08:33:45;84;70;
55591;PMS5003;41454;53.396;-1.510;2022-12-18T08:36:14;77;67;
55591;PMS5003;41454;53.396;-1.510;2022-12-18T08:38:41;70;65;
55591;PMS5003;41454;53.396;-1.510;2022-12-18T08:41:09;74;64;
55591;PMS5003;41454;53.396;-1.510;2022-12-18T08:43:38;60;60;
55591;PMS5003;41454;53.396;-1.510;2022-12-18T08:46:06;64;57;
55591;PMS5003;41454;53.396;-1.510;2022-12-18T08:48:33;68;62;
55591;PMS5003;41454;53.396;-1.510;2022-12-18T08:51:00;59;56;
55591;PMS5003;41454;53.396;-1.510;2022-12-18T08:53:27;71;63;
55591;PMS5003;41454;53.396;-1.510;2022-12-18T08:55:55;61;56;
55591;PMS5003;41454;53.396;-1.510;2022-12-18T08:58:22;67;58;
55591;PMS5003;41454;53.396;-1.510;2022-12-18T09:00:49;48;48;
55591;PMS5003;41454;53.396;-1.510;2022-12-18T09:03:17;69;62;
55591;PMS5003;41454;53.396;-1.510;2022-12-18T09:05:45;64;61;
55591;PMS5003;41454;53.396;-1.510;2022-12-18T09:08:12;72;68;
55591;PMS5003;41454;53.396;-1.510;2022-12-18T09:10:41;64;58;
55591;PMS5003;41454;53.396;-1.510;2022-12-18T09:13:10;62;50;
55591;PMS5003;41454;53.396;-1.510;2022-12-18T09:15:40;58;54;
55591;PMS5003;41454;53.396;-1.510;2022-12-18T09:18:08;60;53;
55591;PMS5003;41454;53.396;-1.510;2022-12-18T09:20:36;69;58;
55591;PMS5003;41454;53.396;-1.510;2022-12-18T09:23:03;70;59;
55591;PMS5003;41454;53.396;-1.510;2022-12-18T09:25:30;60;55;
55591;PMS5003;41454;53.396;-1.510;2022-12-18T09:27:58;57;50;
55591;PMS5003;41454;53.396;-1.510;2022-12-18T09:30:25;62;52;
55591;PMS5003;41454;53.396;-1.510;2022-12-18T09:32:53;64;59;
55591;PMS5003;41454;53.396;-1.510;2022-12-18T09:35:20;55;49;
55591;PMS5003;41454;53.396;-1.510;2022-12-18T09:37:47;60;56;
55591;PMS5003;41454;53.396;-1.510;2022-12-18T09:40:15;58;54;
55591;PMS5003;41454;53.396;-1.510;2022-12-18T09:42:47;63;54;
55591;PMS5003;41454;53.396;-1.510;2022-12-18T09:45:20;55;47;
55591;PMS5003;41454;53.396;-1.510;2022-12-18T09:47:48;66;60;
55591;PMS5003;41454;53.396;-1.510;2022-12-18T09:50:22;61;54;
55591;PMS5003;41454;53.396;-1.510;2022-12-18T09:52:53;59;52;
55591;PMS5003;41454;53.396;-1.510;2022-12-18T09:55:24;67;57;
55591;PMS5003;41454;53.396;-1.510;2022-12-18T09:57:57;62;55;
55591;PMS5003;41454;53.396;-1.510;2022-12-18T10:00:32;53;50;
55591;PMS5003;41454;53.396;-1.510;2022-12-18T10:02:59;65;56;
55591;PMS5003;41454;53.396;-1.510;2022-12-18T10:05:33;53;51;
55591;PMS5003;41454;53.396;-1.510;2022-12-18T10:08:08;58;55;
55591;PMS5003;41454;53.396;-1.510;2022-12-18T10:10:41;56;52;
55591;PMS5003;41454;53.396;-1.510;2022-12-18T10:13:16;68;57;
55591;PMS5003;41454;53.396;-1.510;2022-12-18T10:15:52;56;53;
55591;PMS5003;41454;53.396;-1.510;2022-12-18T10:18:30;57;55;
55591;PMS5003;41454;53.396;-1.510;2022-12-18T10:21:08;66;56;
55591;PMS5003;41454;53.396;-1.510;2022-12-18T10:23:42;61;52;
55591;PMS5003;41454;53.396;-1.510;2022-12-18T10:26:17;54;50;
55591;PMS5003;41454;53.396;-1.510;2022-12-18T10:28:45;64;57;
55591;PMS5003;41454;53.396;-1.510;2022-12-18T10:31:14;52;51;
55591;PMS5003;41454;53.396;-1.510;2022-12-18T10:33:43;55;48;
55591;PMS5003;41454;53.396;-1.510;2022-12-18T10:36:11;51;44;
55591;PMS5003;41454;53.396;-1.510;2022-12-18T10:38:38;55;49;
55591;PMS5003;41454;53.396;-1.510;2022-12-18T10:41:08;44;42;
55591;PMS5003;41454;53.396;-1.510;2022-12-18T10:43:53;56;50;
55591;PMS5003;41454;53.396;-1.510;2022-12-18T10:46:39;54;48;
55591;PMS5003;41454;53.396;-1.510;2022-12-18T10:49:17;59;49;
55591;PMS5003;41454;53.396;-1.510;2022-12-18T10:51:46;59;48;
55591;PMS5003;41454;53.396;-1.510;2022-12-18T10:54:14;59;52;
55591;PMS5003;41454;53.396;-1.510;2022-12-18T10:56:43;61;50;
55591;PMS5003;41454;53.396;-1.510;2022-12-18T10:59:12;52;45;
55591;PMS5003;41454;53.396;-1.510;2022-12-18T11:01:49;59;50;
55591;PMS5003;41454;53.396;-1.510;2022-12-18T11:04:19;58;49;
55591;PMS5003;41454;53.396;-1.510;2022-12-18T11:06:57;45;42;
55591;PMS5003;41454;53.396;-1.510;2022-12-18T11:09:25;48;46;
55591;PMS5003;41454;53.396;-1.510;2022-12-18T11:11:55;60;56;
55591;PMS5003;41454;53.396;-1.510;2022-12-18T11:14:25;47;45;
55591;PMS5003;41454;53.396;-1.510;2022-12-18T11:16:54;51;44;
55591;PMS5003;41454;53.396;-1.510;2022-12-18T11:19:27;49;46;
55591;PMS5003;41454;53.396;-1.510;2022-12-18T11:21:58;58;53;
55591;PMS5003;41454;53.396;-1.510;2022-12-18T11:24:29;49;46;
55591;PMS5003;41454;53.396;-1.510;2022-12-18T11:26:57;54;49;
55591;PMS5003;41454;53.396;-1.510;2022-12-18T11:29:30;53;49;
55591;PMS5003;41454;53.396;-1.510;2022-12-18T11:32:34;63;54;
55591;PMS5003;41454;53.396;-1.510;2022-12-18T11:35:08;55;50;
55591;PMS5003;41454;53.396;-1.510;2022-12-18T11:37:45;52;47;
55591;PMS5003;41454;53.396;-1.510;2022-12-18T11:40:17;51;47;
55591;PMS5003;41454;53.396;-1.510;2022-12-18T11:42:52;60;53;
55591;PMS5003;41454;53.396;-1.510;2022-12-18T11:45:27;56;47;
55591;PMS5003;41454;53.396;-1.510;2022-12-18T11:47:56;50;50;
55591;PMS5003;41454;53.396;-1.510;2022-12-18T11:50:29;52;49;
55591;PMS5003;41454;53.396;-1.510;2022-12-18T11:53:09;52;48;
55591;PMS5003;41454;53.396;-1.510;2022-12-18T11:55:40;48;46;
55591;PMS5003;41454;53.396;-1.510;2022-12-18T11:58:15;56;52;
55591;PMS5003;41454;53.396;-1.510;2022-12-18T12:00:56;57;50;
55591;PMS5003;41454;53.396;-1.510;2022-12-18T12:03:38;45;42;
55591;PMS5003;41454;53.396;-1.510;2022-12-18T12:06:16;57;55;
55591;PMS5003;41454;53.396;-1.510;2022-12-18T12:08:54;51;48;
55591;PMS5003;41454;53.396;-1.510;2022-12-18T12:11:34;59;50;
55591;PMS5003;41454;53.396;-1.510;2022-12-18T12:14:14;55;51;
55591;PMS5003;41454;53.396;-1.510;2022-12-18T12:16:51;53;49;
55591;PMS5003;41454;53.396;-1.510;2022-12-18T12:19:27;59;52;
55591;PMS5003;41454;53.396;-1.510;2022-12-18T12:22:07;53;50;
55591;PMS5003;41454;53.396;-1.510;2022-12-18T12:24:46;58;50;
55591;PMS5003;41454;53.396;-1.510;2022-12-18T12:27:23;59;54;
55591;PMS5003;41454;53.396;-1.510;2022-12-18T12:30:00;55;54;
55591;PMS5003;41454;53.396;-1.510;2022-12-18T12:32:37;52;50;
55591;PMS5003;41454;53.396;-1.510;2022-12-18T12:35:14;53;48;
55591;PMS5003;41454;53.396;-1.510;2022-12-18T12:37:56;55;52;
55591;PMS5003;41454;53.396;-1.510;2022-12-18T12:40:32;64;55;
55591;PMS5003;41454;53.396;-1.510;2022-12-18T12:43:01;63;59;
55591;PMS5003;41454;53.396;-1.510;2022-12-18T12:45:34;55;50;
55591;PMS5003;41454;53.396;-1.510;2022-12-18T12:48:07;57;53;
55591;PMS5003;41454;53.396;-1.510;2022-12-18T12:50:43;54;53;
55591;PMS5003;41454;53.396;-1.510;2022-12-18T12:53:22;54;49;
55591;PMS5003;41454;53.396;-1.510;2022-12-18T12:55:55;62;51;
55591;PMS5003;41454;53.396;-1.510;2022-12-18T12:58:26;50;49;
55591;PMS5003;41454;53.396;-1.510;2022-12-18T13:01:01;53;49;
55591;PMS5003;41454;53.396;-1.510;2022-12-18T13:03:41;53;50;
55591;PMS5003;41454;53.396;-1.510;2022-12-18T13:06:14;58;54;
55591;PMS5003;41454;53.396;-1.510;2022-12-18T13:08:52;53;51;
55591;PMS5003;41454;53.396;-1.510;2022-12-18T13:11:32;64;55;
55591;PMS5003;41454;53.396;-1.510;2022-12-18T13:14:03;64;56;
55591;PMS5003;41454;53.396;-1.510;2022-12-18T13:16:30;54;52;
55591;PMS5003;41454;53.396;-1.510;2022-12-18T13:18:57;53;53;
55591;PMS5003;41454;53.396;-1.510;2022-12-18T13:21:25;52;50;
55591;PMS5003;41454;53.396;-1.510;2022-12-18T13:23:55;59;53;
55591;PMS5003;41454;53.396;-1.510;2022-12-18T13:26:30;66;58;
55591;PMS5003;41454;53.396;-1.510;2022-12-18T13:28:59;62;53;
55591;PMS5003;41454;53.396;-1.510;2022-12-18T13:31:57;54;50;
55591;PMS5003;41454;53.396;-1.510;2022-12-18T13:34:26;54;48;
55591;PMS5003;41454;53.396;-1.510;2022-12-18T13:36:56;51;50;
55591;PMS5003;41454;53.396;-1.510;2022-12-18T13:40:35;56;52;
55591;PMS5003;41454;53.396;-1.510;2022-12-18T13:43:23;64;59;
55591;PMS5003;41454;53.396;-1.510;2022-12-18T13:46:00;62;57;
55591;PMS5003;41454;53.396;-1.510;2022-12-18T13:48:31;64;57;
55591;PMS5003;41454;53.396;-1.510;2022-12-18T13:51:01;63;57;
55591;PMS5003;41454;53.396;-1.510;2022-12-18T13:53:34;58;52;
55591;PMS5003;41454;53.396;-1.510;2022-12-18T13:56:05;60;56;
55591;PMS5003;41454;53.396;-1.510;2022-12-18T13:58:32;60;54;
55591;PMS5003;41454;53.396;-1.510;2022-12-18T14:01:00;70;57;
55591;PMS5003;41454;53.396;-1.510;2022-12-18T14:03:28;70;63;
55591;PMS5003;41454;53.396;-1.510;2022-12-18T14:05:58;61;53;
55591;PMS5003;41454;53.396;-1.510;2022-12-18T14:08:29;58;54;
55591;PMS5003;41454;53.396;-1.510;2022-12-18T14:11:01;59;55;
55591;PMS5003;41454;53.396;-1.510;2022-12-18T14:13:32;66;61;
55591;PMS5003;41454;53.396;-1.510;2022-12-18T14:16:03;61;56;
55591;PMS5003;41454;53.396;-1.510;2022-12-18T14:18:36;57;54;
55591;PMS5003;41454;53.396;-1.510;2022-12-18T14:21:14;56;52;
55591;PMS5003;41454;53.396;-1.510;2022-12-18T14:23:46;68;61;
55591;PMS5003;41454;53.396;-1.510;2022-12-18T14:26:21;61;59;
55591;PMS5003;41454;53.396;-1.510;2022-12-18T14:28:50;63;59;
55591;PMS5003;41454;53.396;-1.510;2022-12-18T14:31:18;62;58;
55591;PMS5003;41454;53.396;-1.510;2022-12-18T14:33:46;59;52;
55591;PMS5003;41454;53.396;-1.510;2022-12-18T14:36:15;59;52;
55591;PMS5003;41454;53.396;-1.510;2022-12-18T14:38:48;58;54;
55591;PMS5003;41454;53.396;-1.510;2022-12-18T14:41:17;58;53;
55591;PMS5003;41454;53.396;-1.510;2022-12-18T14:43:46;55;51;
55591;PMS5003;41454;53.396;-1.510;2022-12-18T14:46:33;56;52;
55591;PMS5003;41454;53.396;-1.510;2022-12-18T14:49:02;55;50;
55591;PMS5003;41454;53.396;-1.510;2022-12-18T14:51:32;59;56;
55591;PMS5003;41454;53.396;-1.510;2022-12-18T14:54:00;70;57;
55591;PMS5003;41454;53.396;-1.510;2022-12-18T14:56:29;61;55;
55591;PMS5003;41454;53.396;-1.510;2022-12-18T14:58:59;58;56;
55591;PMS5003;41454;53.396;-1.510;2022-12-18T15:01:28;57;55;
55591;PMS5003;41454;53.396;-1.510;2022-12-18T15:03:58;56;52;
55591;PMS5003;41454;53.396;-1.510;2022-12-18T15:06:29;61;56;
55591;PMS5003;41454;53.396;-1.510;2022-12-18T15:08:58;66;58;
55591;PMS5003;41454;53.396;-1.510;2022-12-18T15:11:28;58;53;
55591;PMS5003;41454;53.396;-1.510;2022-12-18T15:14:21;65;57;
55591;PMS5003;41454;53.396;-1.510;2022-12-18T15:16:51;77;71;
55591;PMS5003;41454;53.396;-1.510;2022-12-18T15:19:19;62;61;
55591;PMS5003;41454;53.396;-1.510;2022-12-18T15:21:49;62;56;
55591;PMS5003;41454;53.396;-1.510;2022-12-18T15:24:18;63;57;
55591;PMS5003;41454;53.396;-1.510;2022-12-18T15:26:51;76;70;
55591;PMS5003;41454;53.396;-1.510;2022-12-18T15:29:19;76;66;
55591;PMS5003;41454;53.396;-1.510;2022-12-18T15:31:57;61;57;
55591;PMS5003;41454;53.396;-1.510;2022-12-18T15:34:27;67;65;
55591;PMS5003;41454;53.396;-1.510;2022-12-18T15:36:54;70;59;
55591;PMS5003;41454;53.396;-1.510;2022-12-18T15:39:21;61;53;
55591;PMS5003;41454;53.396;-1.510;2022-12-18T15:41:48;67;63;
55591;PMS5003;41454;53.396;-1.510;2022-12-18T15:44:20;64;57;
55591;PMS5003;41454;53.396;-1.510;2022-12-18T15:46:49;63;60;
55591;PMS5003;41454;53.396;-1.510;2022-12-18T15:49:16;61;55;
55591;PMS5003;41454;53.396;-1.510;2022-12-18T15:51:43;60;58;
55591;PMS5003;41454;53.396;-1.510;2022-12-18T15:54:18;60;54;
55591;PMS5003;41454;53.396;-1.510;2022-12-18T15:56:47;65;59;
55591;PMS5003;41454;53.396;-1.510;2022-12-18T15:59:15;55;50;
55591;PMS5003;41454;53.396;-1.510;2022-12-18T16:01:45;59;56;
55591;PMS5003;41454;53.396;-1.510;2022-12-18T16:04:15;64;58;
55591;PMS5003;41454;53.396;-1.510;2022-12-18T16:06:43;57;48;
55591;PMS5003;41454;53.396;-1.510;2022-12-18T16:09:10;64;56;
55591;PMS5003;41454;53.396;-1.510;2022-12-18T16:11:38;51;46;
55591;PMS5003;41454;53.396;-1.510;2022-12-18T16:14:12;54;52;
55591;PMS5003;41454;53.396;-1.510;2022-12-18T16:16:43;62;58;
55591;PMS5003;41454;53.396;-1.510;2022-12-18T16:19:10;56;51;
55591;PMS5003;41454;53.396;-1.510;2022-12-18T16:21:38;57;51;
55591;PMS5003;41454;53.396;-1.510;2022-12-18T16:24:05;55;51;